createdAt,value
2023-09-14T00:01:02.921Z,11.25
2023-09-14T00:03:30.696Z,11.15
2023-09-14T00:05:57.818Z,11.13
2023-09-14T00:08:24.876Z,11.52
2023-09-14T00:10:57.031Z,11.57
2023-09-14T00:13:24.507Z,11.77
2023-09-14T00:15:52.325Z,11.20
2023-09-14T00:18:21.545Z,12.05
2023-09-14T00:20:49.646Z,11.98
2023-09-14T00:23:16.651Z,11.68
2023-09-14T00:25:43.603Z,11.68
2023-09-14T00:28:10.762Z,12.75
2023-09-14T00:30:37.848Z,12.23
2023-09-14T00:33:05.187Z,12.00
2023-09-14T00:35:32.303Z,12.15
2023-09-14T00:37:59.336Z,12.60
2023-09-14T00:40:27.526Z,12.63
2023-09-14T00:42:54.750Z,12.48
2023-09-14T00:45:23.437Z,11.30
2023-09-14T00:47:59.861Z,12.80
2023-09-14T00:50:28.202Z,12.88
2023-09-14T00:53:04.186Z,12.98
2023-09-14T00:55:32.171Z,13.48
2023-09-14T00:57:59.454Z,12.63
2023-09-14T01:00:27.586Z,14.05
2023-09-14T01:03:02.249Z,12.57
2023-09-14T01:05:32.192Z,11.85
2023-09-14T01:08:00.624Z,12.80
2023-09-14T01:10:28.093Z,12.18
2023-09-14T01:12:59.304Z,12.07
2023-09-14T01:15:54.534Z,10.85
2023-09-14T01:18:37.070Z,10.73
2023-09-14T01:21:14.532Z,11.48
2023-09-14T01:24:13.749Z,11.30
2023-09-14T01:26:42.031Z,10.95
2023-09-14T01:29:09.667Z,11.52
2023-09-14T01:31:36.703Z,11.05
2023-09-14T01:34:04.066Z,11.52
2023-09-14T01:37:01.550Z,10.65
2023-09-14T01:39:30.086Z,11.45
2023-09-14T01:41:58.431Z,10.75
2023-09-14T01:44:28.427Z,11.35
2023-09-14T01:46:56.295Z,10.55
2023-09-14T01:49:24.092Z,10.20
2023-09-14T01:51:51.379Z,11.02
2023-09-14T01:54:18.551Z,10.77
2023-09-14T01:56:46.626Z,11.00
2023-09-14T01:59:13.725Z,10.82
2023-09-14T02:01:40.833Z,10.50
2023-09-14T02:04:08.169Z,11.23
2023-09-14T02:06:35.245Z,10.65
2023-09-14T02:09:02.721Z,10.48
2023-09-14T02:11:29.939Z,9.82
2023-09-14T02:13:56.938Z,9.65
2023-09-14T02:16:24.035Z,9.32
2023-09-14T02:18:51.160Z,10.30
2023-09-14T02:21:19.394Z,9.52
2023-09-14T02:23:48.878Z,10.73
2023-09-14T02:26:15.945Z,10.52
2023-09-14T02:28:43.090Z,12.23
2023-09-14T02:31:10.405Z,12.00
2023-09-14T02:33:38.867Z,12.30
2023-09-14T02:36:07.569Z,10.60
2023-09-14T02:38:34.870Z,9.93
2023-09-14T02:41:01.928Z,9.73
2023-09-14T02:43:29.141Z,9.70
2023-09-14T02:45:56.411Z,9.13
2023-09-14T02:48:23.614Z,8.38
2023-09-14T02:50:50.620Z,8.80
2023-09-14T02:53:17.671Z,8.43
2023-09-14T02:55:44.811Z,8.68
2023-09-14T02:58:12.159Z,8.23
2023-09-14T03:00:40.505Z,8.20
2023-09-14T03:03:11.183Z,9.00
2023-09-14T03:05:40.018Z,8.43
2023-09-14T03:08:07.533Z,8.15
2023-09-14T03:10:34.728Z,8.18
2023-09-14T03:13:01.878Z,8.02
2023-09-14T03:15:29.172Z,7.90
2023-09-14T03:17:56.504Z,7.85
2023-09-14T03:20:23.713Z,8.75
2023-09-14T03:22:50.921Z,8.75
2023-09-14T03:25:18.331Z,7.95
2023-09-14T03:27:46.122Z,8.80
2023-09-14T03:30:14.000Z,7.97
2023-09-14T03:32:41.218Z,8.88
2023-09-14T03:35:08.330Z,8.07
2023-09-14T03:37:37.188Z,7.65
2023-09-14T03:40:09.808Z,8.43
2023-09-14T03:42:38.616Z,8.57
2023-09-14T03:45:06.680Z,8.13
2023-09-14T03:47:33.927Z,8.13
2023-09-14T03:50:01.277Z,7.22
2023-09-14T03:52:28.351Z,6.93
2023-09-14T03:54:55.359Z,7.13
2023-09-14T03:57:22.413Z,6.47
2023-09-14T03:59:49.647Z,7.18
2023-09-14T04:02:16.761Z,7.38
2023-09-14T04:04:44.479Z,6.22
2023-09-14T04:07:12.143Z,6.63
2023-09-14T04:09:39.657Z,6.25
2023-09-14T04:12:06.935Z,6.60
2023-09-14T04:14:34.077Z,5.95
2023-09-14T04:17:02.521Z,6.18
2023-09-14T04:19:30.841Z,6.43
2023-09-14T04:22:00.351Z,6.00
2023-09-14T04:24:28.329Z,5.85
2023-09-14T04:26:55.537Z,6.03
2023-09-14T04:29:22.785Z,6.25
2023-09-14T04:31:49.975Z,5.72
2023-09-14T04:34:17.080Z,5.60
2023-09-14T04:36:45.889Z,5.28
2023-09-14T04:39:13.932Z,5.13
2023-09-14T04:41:41.438Z,4.80
2023-09-14T04:44:08.602Z,5.90
2023-09-14T04:46:36.234Z,5.93
2023-09-14T04:49:03.602Z,4.95
2023-09-14T04:51:30.906Z,5.65
2023-09-14T04:53:58.100Z,5.43
2023-09-14T04:56:25.349Z,4.95
2023-09-14T04:58:52.418Z,5.07
2023-09-14T05:01:19.461Z,5.00
2023-09-14T05:03:47.777Z,5.80
2023-09-14T05:06:15.273Z,5.20
2023-09-14T05:08:42.313Z,4.68
2023-09-14T05:11:10.391Z,4.82
2023-09-14T05:13:37.914Z,4.40
2023-09-14T05:16:05.189Z,3.80
2023-09-14T05:18:32.655Z,4.60
2023-09-14T05:21:00.393Z,4.63
2023-09-14T05:23:27.439Z,4.35
2023-09-14T05:25:54.759Z,4.30
2023-09-14T05:28:21.894Z,3.58
2023-09-14T05:30:49.003Z,4.07
2023-09-14T05:33:16.164Z,3.17
2023-09-14T05:35:45.214Z,3.50
2023-09-14T05:38:13.015Z,3.47
2023-09-14T05:40:41.039Z,3.70
2023-09-14T05:43:08.191Z,4.07
2023-09-14T05:45:35.260Z,3.20
2023-09-14T05:48:06.012Z,3.20
2023-09-14T05:50:35.605Z,3.00
2023-09-14T05:53:03.935Z,2.90
2023-09-14T05:55:31.208Z,2.63
2023-09-14T05:57:58.474Z,2.80
2023-09-14T06:00:26.089Z,2.70
2023-09-14T06:02:55.740Z,3.22
2023-09-14T06:05:25.763Z,2.80
2023-09-14T06:07:55.002Z,2.58
2023-09-14T06:10:23.551Z,2.83
2023-09-14T06:12:52.037Z,2.85
2023-09-14T06:15:19.367Z,2.78
2023-09-14T06:17:48.516Z,3.30
2023-09-14T06:20:16.661Z,2.90
2023-09-14T06:22:43.789Z,3.03
2023-09-14T06:25:10.973Z,3.15
2023-09-14T06:27:37.976Z,2.92
2023-09-14T06:30:06.075Z,2.50
2023-09-14T06:32:33.337Z,2.90
2023-09-14T06:35:00.605Z,2.72
2023-09-14T06:37:29.383Z,2.90
2023-09-14T06:39:56.464Z,2.88
2023-09-14T06:42:23.561Z,3.15
2023-09-14T06:44:50.662Z,2.90
2023-09-14T06:47:18.323Z,2.72
2023-09-14T06:49:45.374Z,2.83
2023-09-14T06:52:12.458Z,2.38
2023-09-14T06:54:39.561Z,2.35
2023-09-14T06:57:07.374Z,2.97
2023-09-14T06:59:35.199Z,2.85
2023-09-14T07:02:03.643Z,2.75
2023-09-14T07:04:31.715Z,2.90
2023-09-14T07:06:59.034Z,3.00
2023-09-14T07:09:26.370Z,3.33
2023-09-14T07:11:53.535Z,2.40
2023-09-14T07:14:20.756Z,2.80
2023-09-14T07:16:48.046Z,2.42
2023-09-14T07:19:15.425Z,2.85
2023-09-14T07:21:42.617Z,2.78
2023-09-14T07:24:09.896Z,2.63
2023-09-14T07:26:37.846Z,2.47
2023-09-14T07:29:06.193Z,2.60
2023-09-14T07:31:35.700Z,2.95
2023-09-14T07:34:02.866Z,2.78
2023-09-14T07:36:30.041Z,2.70
2023-09-14T07:38:57.084Z,2.63
2023-09-14T07:41:24.183Z,2.65
2023-09-14T07:43:51.204Z,2.22
2023-09-14T07:46:18.498Z,2.45
2023-09-14T07:48:45.813Z,2.30
2023-09-14T07:51:12.877Z,2.30
2023-09-14T07:53:40.004Z,2.13
2023-09-14T07:56:07.093Z,1.75
2023-09-14T07:58:34.112Z,2.10
2023-09-14T08:01:01.234Z,1.75
2023-09-14T08:03:29.342Z,1.77
2023-09-14T08:05:56.447Z,1.63
2023-09-14T08:08:23.494Z,1.80
2023-09-14T08:10:54.900Z,1.80
2023-09-14T08:13:23.068Z,1.63
2023-09-14T08:15:50.342Z,1.70
2023-09-14T08:18:19.531Z,1.33
2023-09-14T08:20:49.670Z,1.52
2023-09-14T08:23:19.299Z,1.58
2023-09-14T08:25:47.930Z,1.50
2023-09-14T08:28:17.268Z,1.42
2023-09-14T08:30:45.425Z,1.60
2023-09-14T08:33:14.762Z,2.15
2023-09-14T08:35:46.210Z,1.35
2023-09-14T08:38:13.263Z,1.70
2023-09-14T08:40:42.914Z,1.17
2023-09-14T08:43:14.108Z,1.20
2023-09-14T08:45:41.236Z,1.45
2023-09-14T08:48:09.880Z,1.73
2023-09-14T08:50:40.686Z,1.27
2023-09-14T08:53:08.453Z,1.50
2023-09-14T08:55:36.814Z,1.58
2023-09-14T08:58:04.559Z,1.02
2023-09-14T09:00:32.767Z,1.20
2023-09-14T09:03:00.142Z,1.13
2023-09-14T09:05:27.806Z,1.10
2023-09-14T09:07:56.510Z,1.00
2023-09-14T09:10:27.052Z,1.20
2023-09-14T09:13:05.467Z,1.40
2023-09-14T09:15:36.136Z,1.13
2023-09-14T09:18:12.222Z,1.08
2023-09-14T09:20:42.250Z,1.38
2023-09-14T09:23:10.353Z,1.30
2023-09-14T09:25:53.619Z,1.33
2023-09-14T09:28:29.211Z,1.23
2023-09-14T09:30:56.361Z,1.50
2023-09-14T09:33:40.844Z,1.30
2023-09-14T09:36:19.090Z,1.80
2023-09-14T09:38:49.140Z,1.70
2023-09-14T09:41:17.177Z,1.65
2023-09-14T09:43:45.705Z,1.20
2023-09-14T09:46:17.848Z,2.10
2023-09-14T09:48:45.861Z,1.70
2023-09-14T09:51:13.434Z,1.88
2023-09-14T09:54:08.177Z,1.63
2023-09-14T09:56:37.432Z,1.65
2023-09-14T09:59:10.742Z,1.63
2023-09-14T10:01:43.087Z,1.60
2023-09-14T10:04:11.984Z,1.67
2023-09-14T10:06:39.700Z,2.15
2023-09-14T10:09:12.589Z,2.08
2023-09-14T10:11:40.516Z,1.83
2023-09-14T10:14:15.084Z,1.92
2023-09-14T10:16:45.076Z,2.05
2023-09-14T10:19:13.480Z,2.08
2023-09-14T10:21:41.265Z,1.73
2023-09-14T10:24:10.514Z,1.92
2023-09-14T10:26:38.262Z,1.85
2023-09-14T10:29:10.226Z,1.52
2023-09-14T10:31:37.912Z,1.55
2023-09-14T10:34:07.246Z,1.70
2023-09-14T10:36:36.548Z,1.80
2023-09-14T10:39:07.462Z,1.63
2023-09-14T10:41:34.609Z,1.65
2023-09-14T10:44:01.983Z,2.00
2023-09-14T10:46:37.127Z,1.60
2023-09-14T10:49:05.270Z,1.80
2023-09-14T10:51:32.530Z,2.00
2023-09-14T10:54:02.898Z,1.65
2023-09-14T10:56:32.645Z,1.77
2023-09-14T10:59:00.881Z,1.95
2023-09-14T11:01:49.100Z,2.03
2023-09-14T11:04:20.774Z,2.15
2023-09-14T11:06:55.433Z,2.10
2023-09-14T11:09:24.963Z,2.42
2023-09-14T11:11:54.791Z,2.75
2023-09-14T11:14:26.945Z,2.42
2023-09-14T11:17:01.388Z,1.85
2023-09-14T11:22:09.045Z,1.90
2023-09-14T11:24:40.208Z,2.33
2023-09-14T11:27:11.411Z,2.20
2023-09-14T11:29:46.848Z,4.63
2023-09-14T11:32:25.092Z,2.33
2023-09-14T11:35:02.044Z,1.63
2023-09-14T11:37:34.830Z,2.55
2023-09-14T11:40:10.793Z,1.35
2023-09-14T11:43:16.695Z,1.60
2023-09-14T11:45:48.338Z,1.40
2023-09-14T11:50:49.685Z,1.40
2023-09-14T11:53:19.986Z,1.52
2023-09-14T11:55:50.718Z,1.20
2023-09-14T11:58:36.385Z,1.40
2023-09-14T12:01:04.435Z,1.58
2023-09-14T12:03:32.033Z,2.05
2023-09-14T12:06:01.336Z,2.13
2023-09-14T12:08:28.884Z,1.95
2023-09-14T12:10:56.760Z,2.20
2023-09-14T12:13:24.153Z,1.33
2023-09-14T12:16:03.157Z,1.50
2023-09-14T12:18:43.854Z,1.88
2023-09-14T12:21:12.407Z,1.30
2023-09-14T12:23:41.843Z,1.90
2023-09-14T12:26:13.352Z,1.20
2023-09-14T12:28:42.412Z,1.45
2023-09-14T12:31:12.168Z,1.55
2023-09-14T12:33:40.386Z,1.58
2023-09-14T12:36:09.547Z,1.17
2023-09-14T12:38:46.358Z,1.27
2023-09-14T12:41:16.030Z,1.27
2023-09-14T12:43:44.313Z,1.17
2023-09-14T12:46:15.245Z,1.73
2023-09-14T12:48:46.905Z,0.70
2023-09-14T12:51:18.422Z,0.90
2023-09-14T12:53:45.887Z,0.85
2023-09-14T12:56:13.575Z,2.40
2023-09-14T12:58:42.718Z,1.20
2023-09-14T13:01:10.251Z,1.00
2023-09-14T13:03:39.029Z,2.00
2023-09-14T13:06:06.302Z,1.50
2023-09-14T13:08:48.477Z,0.90
2023-09-14T13:11:33.069Z,1.13
2023-09-14T13:14:00.504Z,0.90
2023-09-14T13:16:29.412Z,1.27
2023-09-14T13:19:00.216Z,1.00
2023-09-14T13:21:28.549Z,0.93
2023-09-14T13:23:56.926Z,1.50
2023-09-14T13:26:24.996Z,0.93
2023-09-14T13:28:53.009Z,1.52
2023-09-14T13:31:20.224Z,1.50
2023-09-14T13:33:47.328Z,1.30
2023-09-14T13:36:14.452Z,1.67
2023-09-14T13:38:41.584Z,1.40
2023-09-14T13:41:08.712Z,1.50
2023-09-14T13:43:35.929Z,1.48
2023-09-14T13:46:03.393Z,1.60
2023-09-14T13:48:30.706Z,1.83
2023-09-14T13:50:58.500Z,1.73
2023-09-14T13:53:25.661Z,1.55
2023-09-14T13:55:52.838Z,1.60
2023-09-14T13:58:19.992Z,1.33
2023-09-14T14:00:47.104Z,1.00
2023-09-14T14:03:14.408Z,1.20
2023-09-14T14:05:41.998Z,1.52
2023-09-14T14:08:09.546Z,2.00
2023-09-14T14:10:36.786Z,2.05
2023-09-14T14:13:04.186Z,1.70
2023-09-14T14:15:32.036Z,1.60
2023-09-14T14:17:59.344Z,1.60
2023-09-14T14:20:26.758Z,1.63
2023-09-14T14:22:53.932Z,1.50
2023-09-14T14:25:21.013Z,1.52
2023-09-14T14:27:48.135Z,1.55
2023-09-14T14:30:15.310Z,1.70
2023-09-14T14:32:42.452Z,1.60
2023-09-14T14:35:11.439Z,1.98
2023-09-14T14:37:38.673Z,1.90
2023-09-14T14:40:07.251Z,1.80
2023-09-14T14:42:34.715Z,1.73
2023-09-14T14:45:01.837Z,1.90
2023-09-14T14:47:28.894Z,2.00
2023-09-14T14:49:56.361Z,1.77
2023-09-14T14:52:24.137Z,1.90
2023-09-14T14:54:51.387Z,1.60
2023-09-14T14:57:18.447Z,1.67
2023-09-14T14:59:45.575Z,1.38
2023-09-14T15:02:12.682Z,2.30
2023-09-14T15:04:42.883Z,1.90
2023-09-14T15:07:10.948Z,1.85
2023-09-14T15:09:38.604Z,1.90
2023-09-14T15:12:07.236Z,1.73
2023-09-14T15:14:34.437Z,2.28
2023-09-14T15:17:01.540Z,2.35
2023-09-14T15:19:32.789Z,2.22
2023-09-14T15:22:00.952Z,2.35
2023-09-14T15:24:28.288Z,2.22
2023-09-14T15:26:55.384Z,2.35
2023-09-14T15:29:22.543Z,2.20
2023-09-14T15:31:49.595Z,1.98
2023-09-14T15:34:16.612Z,2.70
2023-09-14T15:36:43.715Z,2.28
2023-09-14T15:39:12.346Z,2.30
2023-09-14T15:41:41.355Z,2.20
2023-09-14T15:44:09.358Z,2.17
2023-09-14T15:46:37.402Z,3.25
2023-09-14T15:49:04.747Z,2.60
2023-09-14T15:51:32.015Z,2.30
2023-09-14T15:53:59.172Z,3.03
2023-09-14T15:56:26.173Z,2.50
2023-09-14T15:58:53.324Z,2.63
2023-09-14T16:01:21.891Z,2.65
2023-09-14T16:03:49.123Z,2.05
2023-09-14T16:06:17.259Z,2.15
2023-09-14T16:08:44.736Z,2.20
2023-09-14T16:11:12.151Z,2.60
2023-09-14T16:13:39.186Z,2.60
2023-09-14T16:16:06.226Z,2.08
2023-09-14T16:18:33.381Z,1.92
2023-09-14T16:21:00.710Z,2.45
2023-09-14T16:23:28.129Z,1.70
2023-09-14T16:25:55.129Z,2.50
2023-09-14T16:28:22.420Z,1.73
2023-09-14T16:30:52.594Z,2.38
2023-09-14T16:33:21.475Z,1.92
2023-09-14T16:35:56.004Z,1.73
2023-09-14T16:38:22.983Z,2.13
2023-09-14T16:40:53.220Z,1.90
2023-09-14T16:43:20.999Z,2.17
2023-09-14T16:45:49.086Z,1.65
2023-09-14T16:48:16.397Z,2.10
2023-09-14T16:50:43.447Z,2.55
2023-09-14T16:53:10.515Z,2.10
2023-09-14T16:55:37.517Z,2.33
2023-09-14T16:58:05.659Z,1.98
2023-09-14T17:00:32.958Z,1.90
2023-09-14T17:03:00.847Z,2.08
2023-09-14T17:05:28.077Z,2.50
2023-09-14T17:07:55.202Z,1.92
2023-09-14T17:10:22.380Z,2.40
2023-09-14T17:12:49.558Z,2.38
2023-09-14T17:15:16.766Z,2.40
2023-09-14T17:17:43.946Z,2.38
2023-09-14T17:20:11.847Z,2.88
2023-09-14T17:22:38.872Z,2.50
2023-09-14T17:25:06.508Z,2.42
2023-09-14T17:27:34.133Z,2.42
2023-09-14T17:30:01.684Z,3.00
2023-09-14T17:32:28.939Z,2.42
2023-09-14T17:34:56.084Z,14.05
2023-09-14T17:37:23.133Z,3.10
2023-09-14T17:39:51.562Z,3.15
2023-09-14T17:42:19.175Z,3.78
2023-09-14T17:44:46.169Z,5.03
2023-09-14T17:47:13.346Z,4.40
2023-09-14T17:49:40.694Z,4.47
2023-09-14T17:52:09.535Z,4.00
2023-09-14T17:54:36.899Z,3.10
2023-09-14T17:57:04.324Z,3.28
2023-09-14T17:59:31.881Z,2.97
2023-09-14T18:01:59.918Z,3.13
2023-09-14T18:04:28.194Z,3.05
2023-09-14T18:06:55.382Z,2.60
2023-09-14T18:09:22.525Z,3.10
2023-09-14T18:11:49.654Z,2.72
2023-09-14T18:14:16.682Z,3.47
2023-09-14T18:16:43.810Z,2.75
2023-09-14T18:19:14.365Z,2.67
2023-09-14T18:21:41.925Z,3.00
2023-09-14T18:24:09.152Z,2.55
2023-09-14T18:26:36.313Z,2.53
2023-09-14T18:29:04.544Z,2.72
2023-09-14T18:31:31.759Z,3.33
2023-09-14T18:34:01.709Z,2.63
2023-09-14T18:36:29.371Z,2.80
2023-09-14T18:38:56.357Z,2.33
2023-09-14T18:41:23.411Z,2.70
2023-09-14T18:43:51.176Z,2.97
2023-09-14T18:46:21.155Z,3.22
2023-09-14T18:48:49.592Z,2.83
2023-09-14T18:51:16.908Z,3.03
2023-09-14T18:53:44.068Z,2.00
2023-09-14T18:56:11.174Z,1.92
2023-09-14T19:01:08.354Z,2.10
2023-09-14T19:03:35.467Z,2.15
2023-09-14T19:06:02.682Z,1.90
2023-09-14T19:08:30.044Z,2.08
2023-09-14T19:10:57.448Z,2.00
2023-09-14T19:13:24.463Z,2.25
2023-09-14T19:15:52.773Z,1.98
2023-09-14T19:18:20.203Z,2.00
2023-09-14T19:20:50.306Z,2.60
2023-09-14T19:23:17.422Z,1.92
2023-09-14T19:25:44.597Z,2.05
2023-09-14T19:28:11.830Z,2.10
2023-09-14T19:30:45.152Z,2.10
2023-09-14T19:33:13.761Z,1.92
2023-09-14T19:35:41.613Z,2.17
2023-09-14T19:38:08.731Z,2.28
2023-09-14T19:40:35.827Z,2.30
2023-09-14T19:43:03.787Z,1.77
2023-09-14T19:45:30.914Z,2.33
2023-09-14T19:47:57.953Z,2.40
2023-09-14T19:50:26.970Z,2.17
2023-09-14T19:52:55.482Z,2.30
2023-09-14T19:55:22.588Z,2.17
2023-09-14T19:57:49.603Z,2.20
2023-09-14T20:00:18.794Z,2.22
2023-09-14T20:02:48.335Z,2.30
2023-09-14T20:05:15.759Z,2.35
2023-09-14T20:07:42.803Z,1.90
2023-09-14T20:10:10.062Z,2.28
2023-09-14T20:12:37.645Z,2.10
2023-09-14T20:15:07.914Z,2.30
2023-09-14T20:17:35.193Z,2.10
2023-09-14T20:20:06.827Z,2.13
2023-09-14T20:22:33.856Z,2.22
2023-09-14T20:25:00.845Z,1.90
2023-09-14T20:27:28.486Z,2.58
2023-09-14T20:29:56.064Z,2.50
2023-09-14T20:32:23.542Z,2.30
2023-09-14T20:34:50.579Z,2.60
2023-09-14T20:37:19.908Z,2.05
2023-09-14T20:39:48.215Z,2.20
2023-09-14T20:42:15.386Z,2.00
2023-09-14T20:44:43.191Z,1.92
2023-09-14T20:47:11.422Z,2.40
2023-09-14T20:49:38.466Z,2.38
2023-09-14T20:52:06.626Z,2.13
2023-09-14T20:54:34.861Z,2.45
2023-09-14T20:57:02.893Z,1.85
2023-09-14T20:59:31.039Z,1.88
2023-09-14T21:01:58.213Z,1.98
2023-09-14T21:04:25.591Z,2.70
2023-09-14T21:06:52.845Z,2.08
2023-09-14T21:09:20.163Z,2.72
2023-09-14T21:11:47.221Z,2.20
2023-09-14T21:14:14.508Z,2.28
2023-09-14T21:16:41.599Z,1.95
2023-09-14T21:19:08.835Z,2.20
2023-09-14T21:21:37.641Z,2.50
2023-09-14T21:24:05.402Z,2.20
2023-09-14T21:26:32.418Z,2.47
2023-09-14T21:28:59.428Z,2.42
2023-09-14T21:31:26.454Z,2.55
2023-09-14T21:33:54.289Z,2.33
2023-09-14T21:36:21.328Z,2.58
2023-09-14T21:38:48.548Z,2.03
2023-09-14T21:41:15.732Z,2.25
2023-09-14T21:43:42.918Z,2.00
2023-09-14T21:46:10.209Z,2.17
2023-09-14T21:48:37.491Z,2.17
2023-09-14T21:51:06.505Z,2.00
2023-09-14T21:53:33.827Z,1.77
2023-09-14T21:56:00.906Z,2.00
2023-09-14T21:58:27.999Z,1.98
2023-09-14T22:00:55.275Z,2.03
2023-09-14T22:03:37.224Z,1.92
2023-09-14T22:06:23.519Z,2.05
2023-09-14T22:08:53.108Z,1.77
2023-09-14T22:11:20.324Z,1.60
2023-09-14T22:13:47.430Z,1.73
2023-09-14T22:16:14.579Z,1.77
2023-09-14T22:18:43.402Z,1.50
2023-09-14T22:21:23.894Z,2.00
2023-09-14T22:23:51.028Z,1.58
2023-09-14T22:26:18.083Z,1.80
2023-09-14T22:28:45.783Z,1.92
2023-09-14T22:31:14.725Z,2.10
2023-09-14T22:33:42.204Z,2.10
2023-09-14T22:36:09.234Z,2.28
2023-09-14T22:38:36.661Z,2.40
2023-09-14T22:41:04.142Z,2.00
2023-09-14T22:43:31.525Z,1.85
2023-09-14T22:46:00.528Z,2.30
2023-09-14T22:48:31.759Z,1.80
2023-09-14T22:51:06.085Z,1.90
2023-09-14T22:53:38.551Z,2.03
2023-09-14T22:56:16.179Z,2.20
2023-09-14T22:58:52.728Z,1.95
2023-09-14T23:01:27.698Z,2.40
2023-09-14T23:03:56.577Z,2.10
2023-09-14T23:06:26.869Z,2.33
2023-09-14T23:08:54.221Z,2.30
2023-09-14T23:11:43.803Z,2.40
2023-09-14T23:14:21.253Z,2.30
2023-09-14T23:16:53.173Z,2.58
2023-09-14T23:19:21.301Z,2.40
2023-09-14T23:21:50.329Z,2.30
2023-09-14T23:24:20.097Z,2.60
2023-09-14T23:26:48.830Z,3.40
2023-09-14T23:29:17.966Z,4.22
2023-09-14T23:31:49.850Z,4.25
2023-09-14T23:34:20.112Z,3.88
2023-09-14T23:36:49.048Z,3.10
2023-09-14T23:39:19.148Z,4.60
2023-09-14T23:41:47.503Z,2.95
2023-09-14T23:44:19.521Z,3.50
2023-09-14T23:46:47.730Z,3.60
2023-09-14T23:49:17.714Z,4.07
2023-09-14T23:51:48.689Z,3.35
2023-09-14T23:54:20.276Z,3.92
2023-09-14T23:56:49.457Z,3.42
2023-09-14T23:59:17.163Z,3.03
